sensor_id;sensor_type;location;lat;lon;timestamp;P1;durP1;ratioP1;P2;durP2;ratioP2
13592;SDS011;6867;50.998;4.250;2023-06-26T00:01:33;6.32;;;3.97;;
13592;SDS011;6867;50.998;4.250;2023-06-26T00:04:01;6.38;;;3.80;;
13592;SDS011;6867;50.998;4.250;2023-06-26T00:06:27;6.50;;;4.13;;
13592;SDS011;6867;50.998;4.250;2023-06-26T00:08:54;4.80;;;3.97;;
13592;SDS011;6867;50.998;4.250;2023-06-26T00:11:21;5.18;;;4.20;;
13592;SDS011;6867;50.998;4.250;2023-06-26T00:13:48;4.97;;;3.75;;
13592;SDS011;6867;50.998;4.250;2023-06-26T00:16:15;6.13;;;3.75;;
13592;SDS011;6867;50.998;4.250;2023-06-26T00:18:42;4.93;;;3.72;;
13592;SDS011;6867;50.998;4.250;2023-06-26T00:21:10;5.82;;;3.80;;
13592;SDS011;6867;50.998;4.250;2023-06-26T00:23:37;4.43;;;3.28;;
13592;SDS011;6867;50.998;4.250;2023-06-26T00:26:04;4.10;;;3.20;;
13592;SDS011;6867;50.998;4.250;2023-06-26T00:28:30;6.00;;;3.10;;
13592;SDS011;6867;50.998;4.250;2023-06-26T00:30:57;5.20;;;3.40;;
13592;SDS011;6867;50.998;4.250;2023-06-26T00:33:24;7.25;;;3.70;;
13592;SDS011;6867;50.998;4.250;2023-06-26T00:35:50;4.55;;;3.83;;
13592;SDS011;6867;50.998;4.250;2023-06-26T00:38:18;5.70;;;3.70;;
13592;SDS011;6867;50.998;4.250;2023-06-26T00:40:46;6.20;;;3.30;;
13592;SDS011;6867;50.998;4.250;2023-06-26T00:43:12;4.68;;;3.40;;
13592;SDS011;6867;50.998;4.250;2023-06-26T00:45:39;4.57;;;3.30;;
13592;SDS011;6867;50.998;4.250;2023-06-26T00:48:06;6.10;;;3.58;;
13592;SDS011;6867;50.998;4.250;2023-06-26T00:50:32;6.00;;;3.47;;
13592;SDS011;6867;50.998;4.250;2023-06-26T00:52:59;6.60;;;3.53;;
13592;SDS011;6867;50.998;4.250;2023-06-26T00:55:27;6.30;;;3.53;;
13592;SDS011;6867;50.998;4.250;2023-06-26T00:57:55;7.97;;;3.65;;
13592;SDS011;6867;50.998;4.250;2023-06-26T01:00:22;5.50;;;3.30;;
13592;SDS011;6867;50.998;4.250;2023-06-26T01:02:50;5.47;;;3.75;;
13592;SDS011;6867;50.998;4.250;2023-06-26T01:05:16;8.20;;;3.33;;
13592;SDS011;6867;50.998;4.250;2023-06-26T01:07:46;5.03;;;3.50;;
13592;SDS011;6867;50.998;4.250;2023-06-26T01:10:13;6.35;;;3.38;;
13592;SDS011;6867;50.998;4.250;2023-06-26T01:12:41;5.65;;;3.72;;
13592;SDS011;6867;50.998;4.250;2023-06-26T01:15:08;5.13;;;3.47;;
13592;SDS011;6867;50.998;4.250;2023-06-26T01:17:36;5.90;;;3.42;;
13592;SDS011;6867;50.998;4.250;2023-06-26T01:20:05;8.00;;;3.60;;
13592;SDS011;6867;50.998;4.250;2023-06-26T01:22:37;4.68;;;3.33;;
13592;SDS011;6867;50.998;4.250;2023-06-26T01:25:12;6.75;;;3.65;;
13592;SDS011;6867;50.998;4.250;2023-06-26T01:27:45;4.15;;;3.20;;
13592;SDS011;6867;50.998;4.250;2023-06-26T01:30:14;5.70;;;3.33;;
13592;SDS011;6867;50.998;4.250;2023-06-26T01:32:42;4.68;;;3.45;;
13592;SDS011;6867;50.998;4.250;2023-06-26T01:35:11;8.68;;;3.83;;
13592;SDS011;6867;50.998;4.250;2023-06-26T01:37:38;7.40;;;3.22;;
13592;SDS011;6867;50.998;4.250;2023-06-26T01:40:05;3.88;;;3.25;;
13592;SDS011;6867;50.998;4.250;2023-06-26T01:42:33;5.28;;;3.25;;
13592;SDS011;6867;50.998;4.250;2023-06-26T01:45:02;5.20;;;3.05;;
13592;SDS011;6867;50.998;4.250;2023-06-26T01:47:36;7.38;;;3.50;;
13592;SDS011;6867;50.998;4.250;2023-06-26T01:50:09;5.68;;;3.40;;
13592;SDS011;6867;50.998;4.250;2023-06-26T01:52:40;5.95;;;3.97;;
13592;SDS011;6867;50.998;4.250;2023-06-26T01:55:13;7.25;;;4.28;;
13592;SDS011;6867;50.998;4.250;2023-06-26T01:57:43;7.20;;;3.30;;
13592;SDS011;6867;50.998;4.250;2023-06-26T02:00:14;4.05;;;3.10;;
13592;SDS011;6867;50.998;4.250;2023-06-26T02:02:43;8.95;;;3.70;;
13592;SDS011;6867;50.998;4.250;2023-06-26T02:05:10;6.40;;;3.35;;
13592;SDS011;6867;50.998;4.250;2023-06-26T02:07:37;6.57;;;3.67;;
13592;SDS011;6867;50.998;4.250;2023-06-26T02:10:04;6.90;;;3.08;;
13592;SDS011;6867;50.998;4.250;2023-06-26T02:12:32;4.78;;;3.30;;
13592;SDS011;6867;50.998;4.250;2023-06-26T02:15:00;12.65;;;3.55;;
13592;SDS011;6867;50.998;4.250;2023-06-26T02:17:29;6.13;;;3.38;;
13592;SDS011;6867;50.998;4.250;2023-06-26T02:19:56;9.25;;;4.05;;
13592;SDS011;6867;50.998;4.250;2023-06-26T02:22:22;9.13;;;3.53;;
13592;SDS011;6867;50.998;4.250;2023-06-26T02:24:49;8.25;;;3.38;;
13592;SDS011;6867;50.998;4.250;2023-06-26T02:27:16;8.38;;;3.63;;
13592;SDS011;6867;50.998;4.250;2023-06-26T02:29:42;8.35;;;4.10;;
13592;SDS011;6867;50.998;4.250;2023-06-26T02:32:09;5.63;;;3.67;;
13592;SDS011;6867;50.998;4.250;2023-06-26T02:34:37;3.78;;;2.97;;
13592;SDS011;6867;50.998;4.250;2023-06-26T02:37:04;11.95;;;4.03;;
13592;SDS011;6867;50.998;4.250;2023-06-26T02:39:32;9.50;;;4.60;;
13592;SDS011;6867;50.998;4.250;2023-06-26T02:41:59;7.40;;;3.70;;
13592;SDS011;6867;50.998;4.250;2023-06-26T02:44:25;8.25;;;3.63;;
13592;SDS011;6867;50.998;4.250;2023-06-26T02:46:52;11.43;;;4.90;;
13592;SDS011;6867;50.998;4.250;2023-06-26T02:49:19;8.18;;;4.22;;
13592;SDS011;6867;50.998;4.250;2023-06-26T02:51:47;10.18;;;4.60;;
13592;SDS011;6867;50.998;4.250;2023-06-26T02:54:13;10.80;;;4.45;;
13592;SDS011;6867;50.998;4.250;2023-06-26T02:56:40;15.90;;;4.32;;
13592;SDS011;6867;50.998;4.250;2023-06-26T02:59:07;10.32;;;4.00;;
13592;SDS011;6867;50.998;4.250;2023-06-26T03:01:34;14.10;;;4.38;;
13592;SDS011;6867;50.998;4.250;2023-06-26T03:04:01;7.22;;;4.25;;
13592;SDS011;6867;50.998;4.250;2023-06-26T03:06:27;8.70;;;4.47;;
13592;SDS011;6867;50.998;4.250;2023-06-26T03:08:55;9.98;;;4.95;;
13592;SDS011;6867;50.998;4.250;2023-06-26T03:11:22;10.88;;;4.53;;
13592;SDS011;6867;50.998;4.250;2023-06-26T03:13:49;8.45;;;4.57;;
13592;SDS011;6867;50.998;4.250;2023-06-26T03:16:15;12.75;;;5.60;;
13592;SDS011;6867;50.998;4.250;2023-06-26T03:18:42;7.85;;;4.95;;
13592;SDS011;6867;50.998;4.250;2023-06-26T03:21:09;14.45;;;5.22;;
13592;SDS011;6867;50.998;4.250;2023-06-26T03:23:35;8.15;;;5.00;;
13592;SDS011;6867;50.998;4.250;2023-06-26T03:26:03;11.77;;;4.65;;
13592;SDS011;6867;50.998;4.250;2023-06-26T03:28:30;15.75;;;5.50;;
13592;SDS011;6867;50.998;4.250;2023-06-26T03:30:57;9.25;;;4.85;;
13592;SDS011;6867;50.998;4.250;2023-06-26T03:33:24;12.43;;;4.90;;
13592;SDS011;6867;50.998;4.250;2023-06-26T03:35:50;9.75;;;4.97;;
13592;SDS011;6867;50.998;4.250;2023-06-26T03:38:17;8.85;;;5.00;;
13592;SDS011;6867;50.998;4.250;2023-06-26T03:40:44;12.52;;;4.97;;
13592;SDS011;6867;50.998;4.250;2023-06-26T03:43:12;12.52;;;5.18;;
13592;SDS011;6867;50.998;4.250;2023-06-26T03:45:38;14.32;;;5.53;;
13592;SDS011;6867;50.998;4.250;2023-06-26T03:48:05;10.88;;;5.00;;
13592;SDS011;6867;50.998;4.250;2023-06-26T03:50:33;11.95;;;5.38;;
13592;SDS011;6867;50.998;4.250;2023-06-26T03:52:59;11.77;;;4.43;;
13592;SDS011;6867;50.998;4.250;2023-06-26T03:55:26;10.75;;;4.90;;
13592;SDS011;6867;50.998;4.250;2023-06-26T03:57:53;12.55;;;5.72;;
13592;SDS011;6867;50.998;4.250;2023-06-26T04:00:21;14.75;;;4.88;;
13592;SDS011;6867;50.998;4.250;2023-06-26T04:02:48;14.15;;;5.35;;
13592;SDS011;6867;50.998;4.250;2023-06-26T04:05:16;14.52;;;5.35;;
13592;SDS011;6867;50.998;4.250;2023-06-26T04:07:42;14.48;;;5.57;;
13592;SDS011;6867;50.998;4.250;2023-06-26T04:10:09;15.77;;;4.88;;
13592;SDS011;6867;50.998;4.250;2023-06-26T04:12:36;14.77;;;4.43;;
13592;SDS011;6867;50.998;4.250;2023-06-26T04:15:03;10.32;;;4.25;;
13592;SDS011;6867;50.998;4.250;2023-06-26T04:17:32;13.10;;;4.47;;
13592;SDS011;6867;50.998;4.250;2023-06-26T04:19:58;11.38;;;4.97;;
13592;SDS011;6867;50.998;4.250;2023-06-26T04:22:25;14.02;;;5.00;;
13592;SDS011;6867;50.998;4.250;2023-06-26T04:24:52;13.70;;;4.75;;
13592;SDS011;6867;50.998;4.250;2023-06-26T04:27:18;11.88;;;4.72;;
13592;SDS011;6867;50.998;4.250;2023-06-26T04:29:45;9.98;;;4.05;;
13592;SDS011;6867;50.998;4.250;2023-06-26T04:32:11;11.93;;;4.75;;
13592;SDS011;6867;50.998;4.250;2023-06-26T04:34:40;9.60;;;4.43;;
13592;SDS011;6867;50.998;4.250;2023-06-26T04:37:09;14.32;;;4.97;;
13592;SDS011;6867;50.998;4.250;2023-06-26T04:39:35;13.20;;;4.47;;
13592;SDS011;6867;50.998;4.250;2023-06-26T04:42:03;12.65;;;5.03;;
13592;SDS011;6867;50.998;4.250;2023-06-26T04:44:31;11.32;;;4.80;;
13592;SDS011;6867;50.998;4.250;2023-06-26T04:46:58;14.77;;;4.85;;
13592;SDS011;6867;50.998;4.250;2023-06-26T04:49:24;7.55;;;3.97;;
13592;SDS011;6867;50.998;4.250;2023-06-26T04:51:54;10.50;;;4.70;;
13592;SDS011;6867;50.998;4.250;2023-06-26T04:54:20;10.38;;;4.70;;
13592;SDS011;6867;50.998;4.250;2023-06-26T04:56:47;13.50;;;5.13;;
13592;SDS011;6867;50.998;4.250;2023-06-26T04:59:14;11.07;;;3.90;;
13592;SDS011;6867;50.998;4.250;2023-06-26T05:01:40;12.65;;;4.68;;
13592;SDS011;6867;50.998;4.250;2023-06-26T05:04:07;13.60;;;4.22;;
13592;SDS011;6867;50.998;4.250;2023-06-26T05:06:34;9.18;;;3.33;;
13592;SDS011;6867;50.998;4.250;2023-06-26T05:09:02;11.27;;;4.15;;
13592;SDS011;6867;50.998;4.250;2023-06-26T05:11:28;15.75;;;4.57;;
13592;SDS011;6867;50.998;4.250;2023-06-26T05:13:55;14.98;;;3.63;;
13592;SDS011;6867;50.998;4.250;2023-06-26T05:16:22;13.77;;;4.00;;
13592;SDS011;6867;50.998;4.250;2023-06-26T05:18:48;14.80;;;4.00;;
13592;SDS011;6867;50.998;4.250;2023-06-26T05:21:15;12.13;;;4.18;;
13592;SDS011;6867;50.998;4.250;2023-06-26T05:23:42;9.30;;;3.47;;
13592;SDS011;6867;50.998;4.250;2023-06-26T05:26:11;10.70;;;3.58;;
13592;SDS011;6867;50.998;4.250;2023-06-26T05:28:39;7.85;;;3.20;;
13592;SDS011;6867;50.998;4.250;2023-06-26T05:31:06;15.95;;;3.75;;
13592;SDS011;6867;50.998;4.250;2023-06-26T05:33:34;7.38;;;3.15;;
13592;SDS011;6867;50.998;4.250;2023-06-26T05:36:03;8.38;;;3.30;;
13592;SDS011;6867;50.998;4.250;2023-06-26T05:38:31;14.85;;;3.40;;
13592;SDS011;6867;50.998;4.250;2023-06-26T05:40:58;10.98;;;3.30;;
13592;SDS011;6867;50.998;4.250;2023-06-26T05:43:27;8.40;;;3.45;;
13592;SDS011;6867;50.998;4.250;2023-06-26T05:45:53;9.10;;;3.30;;
13592;SDS011;6867;50.998;4.250;2023-06-26T05:48:20;7.18;;;2.83;;
13592;SDS011;6867;50.998;4.250;2023-06-26T05:50:47;8.70;;;2.75;;
13592;SDS011;6867;50.998;4.250;2023-06-26T05:53:14;10.98;;;2.97;;
13592;SDS011;6867;50.998;4.250;2023-06-26T05:55:41;9.77;;;3.00;;
13592;SDS011;6867;50.998;4.250;2023-06-26T05:58:09;10.82;;;2.97;;
13592;SDS011;6867;50.998;4.250;2023-06-26T06:00:39;7.43;;;2.22;;
13592;SDS011;6867;50.998;4.250;2023-06-26T06:03:06;8.93;;;2.80;;
13592;SDS011;6867;50.998;4.250;2023-06-26T06:05:32;8.32;;;2.90;;
13592;SDS011;6867;50.998;4.250;2023-06-26T06:07:59;8.32;;;3.97;;
13592;SDS011;6867;50.998;4.250;2023-06-26T06:10:26;7.30;;;2.70;;
13592;SDS011;6867;50.998;4.250;2023-06-26T06:12:52;13.02;;;2.97;;
13592;SDS011;6867;50.998;4.250;2023-06-26T06:15:19;8.27;;;3.33;;
13592;SDS011;6867;50.998;4.250;2023-06-26T06:17:47;7.05;;;2.30;;
13592;SDS011;6867;50.998;4.250;2023-06-26T06:20:14;9.55;;;2.45;;
13592;SDS011;6867;50.998;4.250;2023-06-26T06:22:41;9.10;;;2.92;;
13592;SDS011;6867;50.998;4.250;2023-06-26T06:25:08;6.00;;;2.33;;
13592;SDS011;6867;50.998;4.250;2023-06-26T06:27:35;11.27;;;2.55;;
13592;SDS011;6867;50.998;4.250;2023-06-26T06:30:01;6.32;;;2.10;;
13592;SDS011;6867;50.998;4.250;2023-06-26T06:32:28;5.55;;;2.05;;
13592;SDS011;6867;50.998;4.250;2023-06-26T06:34:56;5.45;;;2.20;;
13592;SDS011;6867;50.998;4.250;2023-06-26T06:37:23;9.05;;;2.53;;
13592;SDS011;6867;50.998;4.250;2023-06-26T06:39:50;9.00;;;2.67;;
13592;SDS011;6867;50.998;4.250;2023-06-26T06:42:16;5.63;;;2.35;;
13592;SDS011;6867;50.998;4.250;2023-06-26T06:44:43;8.70;;;2.22;;
13592;SDS011;6867;50.998;4.250;2023-06-26T06:47:10;7.82;;;2.45;;
13592;SDS011;6867;50.998;4.250;2023-06-26T06:49:36;7.85;;;2.15;;
13592;SDS011;6867;50.998;4.250;2023-06-26T06:52:05;6.13;;;2.40;;
13592;SDS011;6867;50.998;4.250;2023-06-26T06:54:32;8.68;;;2.13;;
13592;SDS011;6867;50.998;4.250;2023-06-26T06:57:18;5.35;;;2.15;;
13592;SDS011;6867;50.998;4.250;2023-06-26T06:59:44;4.75;;;2.00;;
13592;SDS011;6867;50.998;4.250;2023-06-26T07:02:11;6.50;;;2.42;;
13592;SDS011;6867;50.998;4.250;2023-06-26T07:04:38;16.15;;;2.65;;
13592;SDS011;6867;50.998;4.250;2023-06-26T07:07:06;6.72;;;1.75;;
13592;SDS011;6867;50.998;4.250;2023-06-26T07:09:33;8.25;;;2.17;;
13592;SDS011;6867;50.998;4.250;2023-06-26T07:12:00;4.60;;;2.25;;
13592;SDS011;6867;50.998;4.250;2023-06-26T07:14:27;4.63;;;1.90;;
13592;SDS011;6867;50.998;4.250;2023-06-26T07:16:54;6.00;;;1.92;;
13592;SDS011;6867;50.998;4.250;2023-06-26T07:19:21;6.65;;;2.30;;
13592;SDS011;6867;50.998;4.250;2023-06-26T07:21:47;7.53;;;2.10;;
13592;SDS011;6867;50.998;4.250;2023-06-26T07:24:15;6.80;;;2.17;;
13592;SDS011;6867;50.998;4.250;2023-06-26T07:26:42;3.17;;;1.67;;
13592;SDS011;6867;50.998;4.250;2023-06-26T07:29:09;4.75;;;1.80;;
13592;SDS011;6867;50.998;4.250;2023-06-26T07:31:35;4.60;;;1.60;;
13592;SDS011;6867;50.998;4.250;2023-06-26T07:34:02;4.68;;;1.70;;
13592;SDS011;6867;50.998;4.250;2023-06-26T07:36:28;5.28;;;1.63;;
13592;SDS011;6867;50.998;4.250;2023-06-26T07:38:55;3.38;;;1.40;;
13592;SDS011;6867;50.998;4.250;2023-06-26T07:41:23;6.28;;;2.08;;
13592;SDS011;6867;50.998;4.250;2023-06-26T07:43:50;4.03;;;1.40;;
13592;SDS011;6867;50.998;4.250;2023-06-26T07:46:16;5.45;;;1.67;;
13592;SDS011;6867;50.998;4.250;2023-06-26T07:48:43;4.40;;;1.98;;
13592;SDS011;6867;50.998;4.250;2023-06-26T07:51:10;3.15;;;1.60;;
13592;SDS011;6867;50.998;4.250;2023-06-26T07:53:36;7.43;;;1.70;;
13592;SDS011;6867;50.998;4.250;2023-06-26T07:56:04;4.50;;;1.70;;
13592;SDS011;6867;50.998;4.250;2023-06-26T07:58:32;4.60;;;1.63;;
13592;SDS011;6867;50.998;4.250;2023-06-26T08:00:58;5.50;;;1.55;;
13592;SDS011;6867;50.998;4.250;2023-06-26T08:03:25;6.43;;;2.05;;
13592;SDS011;6867;50.998;4.250;2023-06-26T08:05:52;3.92;;;1.77;;
13592;SDS011;6867;50.998;4.250;2023-06-26T08:08:18;4.15;;;1.88;;
13592;SDS011;6867;50.998;4.250;2023-06-26T08:10:45;5.70;;;1.70;;
13592;SDS011;6867;50.998;4.250;2023-06-26T08:13:12;3.10;;;1.40;;
13592;SDS011;6867;50.998;4.250;2023-06-26T08:15:40;4.35;;;1.52;;
13592;SDS011;6867;50.998;4.250;2023-06-26T08:18:06;4.32;;;1.73;;
13592;SDS011;6867;50.998;4.250;2023-06-26T08:20:33;2.67;;;1.23;;
13592;SDS011;6867;50.998;4.250;2023-06-26T08:23:00;5.97;;;1.80;;
13592;SDS011;6867;50.998;4.250;2023-06-26T08:25:27;4.32;;;1.33;;
13592;SDS011;6867;50.998;4.250;2023-06-26T08:27:54;5.70;;;1.30;;
13592;SDS011;6867;50.998;4.250;2023-06-26T08:30:21;5.75;;;1.50;;
13592;SDS011;6867;50.998;4.250;2023-06-26T08:32:51;2.20;;;1.20;;
13592;SDS011;6867;50.998;4.250;2023-06-26T08:35:18;4.10;;;1.52;;
13592;SDS011;6867;50.998;4.250;2023-06-26T08:37:44;4.68;;;1.33;;
13592;SDS011;6867;50.998;4.250;2023-06-26T08:40:11;3.15;;;1.20;;
13592;SDS011;6867;50.998;4.250;2023-06-26T08:42:38;5.07;;;1.70;;
13592;SDS011;6867;50.998;4.250;2023-06-26T08:45:06;5.97;;;1.33;;
13592;SDS011;6867;50.998;4.250;2023-06-26T08:47:33;3.85;;;1.55;;
13592;SDS011;6867;50.998;4.250;2023-06-26T08:50:04;2.00;;;1.42;;
13592;SDS011;6867;50.998;4.250;2023-06-26T08:52:36;5.00;;;1.95;;
13592;SDS011;6867;50.998;4.250;2023-06-26T08:55:08;4.18;;;1.35;;
13592;SDS011;6867;50.998;4.250;2023-06-26T08:57:37;3.63;;;1.60;;
13592;SDS011;6867;50.998;4.250;2023-06-26T09:00:05;5.38;;;2.35;;
13592;SDS011;6867;50.998;4.250;2023-06-26T09:02:34;3.17;;;1.30;;
13592;SDS011;6867;50.998;4.250;2023-06-26T09:05:03;2.85;;;1.27;;
13592;SDS011;6867;50.998;4.250;2023-06-26T09:07:30;4.75;;;1.27;;
13592;SDS011;6867;50.998;4.250;2023-06-26T09:09:56;5.88;;;1.40;;
13592;SDS011;6867;50.998;4.250;2023-06-26T09:12:26;4.60;;;1.40;;
13592;SDS011;6867;50.998;4.250;2023-06-26T09:14:53;5.78;;;1.55;;
13592;SDS011;6867;50.998;4.250;2023-06-26T09:17:23;6.75;;;1.63;;
13592;SDS011;6867;50.998;4.250;2023-06-26T09:19:50;3.42;;;1.25;;
13592;SDS011;6867;50.998;4.250;2023-06-26T09:22:18;1.55;;;1.05;;
13592;SDS011;6867;50.998;4.250;2023-06-26T09:24:46;4.75;;;1.08;;
13592;SDS011;6867;50.998;4.250;2023-06-26T09:27:13;3.30;;;1.27;;
13592;SDS011;6867;50.998;4.250;2023-06-26T09:29:40;4.20;;;1.30;;
13592;SDS011;6867;50.998;4.250;2023-06-26T09:32:07;3.03;;;1.23;;
13592;SDS011;6867;50.998;4.250;2023-06-26T09:34:34;3.38;;;1.58;;
13592;SDS011;6867;50.998;4.250;2023-06-26T09:37:01;2.05;;;1.20;;
13592;SDS011;6867;50.998;4.250;2023-06-26T09:39:31;6.45;;;1.60;;
13592;SDS011;6867;50.998;4.250;2023-06-26T09:41:58;2.75;;;1.40;;
13592;SDS011;6867;50.998;4.250;2023-06-26T09:44:26;2.97;;;1.10;;
13592;SDS011;6867;50.998;4.250;2023-06-26T09:46:54;2.78;;;1.35;;
13592;SDS011;6867;50.998;4.250;2023-06-26T09:49:21;11.75;;;1.70;;
13592;SDS011;6867;50.998;4.250;2023-06-26T09:51:51;1.63;;;1.20;;
13592;SDS011;6867;50.998;4.250;2023-06-26T09:54:17;3.45;;;1.20;;
13592;SDS011;6867;50.998;4.250;2023-06-26T09:56:48;5.85;;;1.50;;
13592;SDS011;6867;50.998;4.250;2023-06-26T09:59:15;6.88;;;1.45;;
13592;SDS011;6867;50.998;4.250;2023-06-26T10:01:44;5.90;;;1.42;;
13592;SDS011;6867;50.998;4.250;2023-06-26T10:04:12;2.25;;;1.27;;
13592;SDS011;6867;50.998;4.250;2023-06-26T10:06:41;5.10;;;1.40;;
13592;SDS011;6867;50.998;4.250;2023-06-26T10:09:11;2.35;;;1.25;;
13592;SDS011;6867;50.998;4.250;2023-06-26T10:11:43;5.80;;;1.35;;
13592;SDS011;6867;50.998;4.250;2023-06-26T10:14:15;4.35;;;1.58;;
13592;SDS011;6867;50.998;4.250;2023-06-26T10:16:43;4.93;;;1.40;;
13592;SDS011;6867;50.998;4.250;2023-06-26T10:19:11;4.63;;;1.60;;
13592;SDS011;6867;50.998;4.250;2023-06-26T10:21:40;6.30;;;2.08;;
13592;SDS011;6867;50.998;4.250;2023-06-26T10:24:07;5.68;;;1.70;;
13592;SDS011;6867;50.998;4.250;2023-06-26T10:26:37;2.38;;;1.20;;
13592;SDS011;6867;50.998;4.250;2023-06-26T10:29:08;3.78;;;1.20;;
13592;SDS011;6867;50.998;4.250;2023-06-26T10:31:38;2.15;;;1.20;;
13592;SDS011;6867;50.998;4.250;2023-06-26T10:34:10;9.00;;;1.75;;
13592;SDS011;6867;50.998;4.250;2023-06-26T10:36:37;3.38;;;1.40;;
13592;SDS011;6867;50.998;4.250;2023-06-26T10:39:05;3.05;;;1.40;;
13592;SDS011;6867;50.998;4.250;2023-06-26T10:41:36;3.58;;;1.30;;
13592;SDS011;6867;50.998;4.250;2023-06-26T10:44:08;4.43;;;1.50;;
13592;SDS011;6867;50.998;4.250;2023-06-26T10:46:52;3.92;;;1.33;;
13592;SDS011;6867;50.998;4.250;2023-06-26T10:49:19;3.50;;;1.60;;
13592;SDS011;6867;50.998;4.250;2023-06-26T10:51:47;4.45;;;1.55;;
13592;SDS011;6867;50.998;4.250;2023-06-26T10:54:15;3.30;;;1.40;;
13592;SDS011;6867;50.998;4.250;2023-06-26T10:56:42;1.98;;;1.30;;
13592;SDS011;6867;50.998;4.250;2023-06-26T10:59:13;2.25;;;1.38;;
13592;SDS011;6867;50.998;4.250;2023-06-26T11:01:42;3.80;;;1.17;;
13592;SDS011;6867;50.998;4.250;2023-06-26T11:04:11;3.17;;;1.73;;
13592;SDS011;6867;50.998;4.250;2023-06-26T11:06:41;3.35;;;1.30;;
13592;SDS011;6867;50.998;4.250;2023-06-26T11:09:14;3.95;;;1.30;;
13592;SDS011;6867;50.998;4.250;2023-06-26T11:11:56;3.67;;;1.20;;
13592;SDS011;6867;50.998;4.250;2023-06-26T11:14:31;1.63;;;1.20;;
13592;SDS011;6867;50.998;4.250;2023-06-26T11:16:58;4.22;;;1.17;;
13592;SDS011;6867;50.998;4.250;2023-06-26T11:19:29;1.20;;;1.10;;
13592;SDS011;6867;50.998;4.250;2023-06-26T11:22:01;7.38;;;1.73;;
13592;SDS011;6867;50.998;4.250;2023-06-26T11:24:29;3.08;;;1.33;;
13592;SDS011;6867;50.998;4.250;2023-06-26T11:26:59;3.38;;;1.42;;
13592;SDS011;6867;50.998;4.250;2023-06-26T11:29:27;4.70;;;1.52;;
13592;SDS011;6867;50.998;4.250;2023-06-26T11:31:58;2.40;;;1.25;;
13592;SDS011;6867;50.998;4.250;2023-06-26T11:34:25;2.65;;;1.23;;
13592;SDS011;6867;50.998;4.250;2023-06-26T11:36:57;3.95;;;1.38;;
13592;SDS011;6867;50.998;4.250;2023-06-26T11:39:26;2.38;;;1.50;;
13592;SDS011;6867;50.998;4.250;2023-06-26T11:41:53;6.22;;;1.42;;
13592;SDS011;6867;50.998;4.250;2023-06-26T11:44:19;3.60;;;1.38;;
13592;SDS011;6867;50.998;4.250;2023-06-26T11:46:51;1.98;;;1.40;;
13592;SDS011;6867;50.998;4.250;2023-06-26T11:49:20;3.42;;;1.75;;
13592;SDS011;6867;50.998;4.250;2023-06-26T11:51:49;2.22;;;1.20;;
13592;SDS011;6867;50.998;4.250;2023-06-26T11:54:16;4.15;;;1.13;;
13592;SDS011;6867;50.998;4.250;2023-06-26T11:56:54;2.08;;;1.27;;
13592;SDS011;6867;50.998;4.250;2023-06-26T11:59:24;2.38;;;1.30;;
13592;SDS011;6867;50.998;4.250;2023-06-26T12:01:57;5.03;;;1.65;;
13592;SDS011;6867;50.998;4.250;2023-06-26T12:04:24;4.35;;;1.50;;
13592;SDS011;6867;50.998;4.250;2023-06-26T12:06:53;3.22;;;1.85;;
13592;SDS011;6867;50.998;4.250;2023-06-26T12:09:22;5.15;;;1.60;;
13592;SDS011;6867;50.998;4.250;2023-06-26T12:11:51;2.88;;;1.48;;
13592;SDS011;6867;50.998;4.250;2023-06-26T12:14:20;3.80;;;1.45;;
13592;SDS011;6867;50.998;4.250;2023-06-26T12:16:48;3.70;;;1.77;;
13592;SDS011;6867;50.998;4.250;2023-06-26T12:19:15;3.58;;;1.48;;
13592;SDS011;6867;50.998;4.250;2023-06-26T12:21:45;4.80;;;1.58;;
13592;SDS011;6867;50.998;4.250;2023-06-26T12:24:18;4.00;;;1.60;;
13592;SDS011;6867;50.998;4.250;2023-06-26T12:26:47;2.13;;;1.40;;
13592;SDS011;6867;50.998;4.250;2023-06-26T12:29:19;3.08;;;1.50;;
13592;SDS011;6867;50.998;4.250;2023-06-26T12:31:48;3.55;;;1.83;;
13592;SDS011;6867;50.998;4.250;2023-06-26T12:34:17;9.32;;;1.80;;
13592;SDS011;6867;50.998;4.250;2023-06-26T12:36:46;3.53;;;1.50;;
13592;SDS011;6867;50.998;4.250;2023-06-26T12:39:15;3.05;;;1.60;;
13592;SDS011;6867;50.998;4.250;2023-06-26T12:41:51;4.00;;;1.52;;
13592;SDS011;6867;50.998;4.250;2023-06-26T12:44:19;4.38;;;1.38;;
13592;SDS011;6867;50.998;4.250;2023-06-26T12:46:47;2.30;;;1.40;;
13592;SDS011;6867;50.998;4.250;2023-06-26T12:49:15;3.70;;;1.88;;
13592;SDS011;6867;50.998;4.250;2023-06-26T12:51:41;3.42;;;1.63;;
13592;SDS011;6867;50.998;4.250;2023-06-26T12:54:09;5.30;;;1.45;;
13592;SDS011;6867;50.998;4.250;2023-06-26T12:56:35;4.63;;;1.38;;
13592;SDS011;6867;50.998;4.250;2023-06-26T12:59:03;1.85;;;1.42;;
13592;SDS011;6867;50.998;4.250;2023-06-26T13:01:30;5.85;;;1.50;;
13592;SDS011;6867;50.998;4.250;2023-06-26T13:03:57;5.00;;;1.48;;
13592;SDS011;6867;50.998;4.250;2023-06-26T13:06:24;3.55;;;1.33;;
13592;SDS011;6867;50.998;4.250;2023-06-26T13:08:51;3.05;;;1.63;;
13592;SDS011;6867;50.998;4.250;2023-06-26T13:11:18;4.50;;;1.40;;
13592;SDS011;6867;50.998;4.250;2023-06-26T13:13:46;4.50;;;1.50;;
13592;SDS011;6867;50.998;4.250;2023-06-26T13:16:14;4.50;;;1.70;;
13592;SDS011;6867;50.998;4.250;2023-06-26T13:18:41;2.80;;;1.67;;
13592;SDS011;6867;50.998;4.250;2023-06-26T13:21:07;3.03;;;1.70;;
13592;SDS011;6867;50.998;4.250;2023-06-26T13:23:34;2.55;;;1.40;;
13592;SDS011;6867;50.998;4.250;2023-06-26T13:26:01;4.80;;;1.80;;
13592;SDS011;6867;50.998;4.250;2023-06-26T13:28:28;4.22;;;1.70;;
13592;SDS011;6867;50.998;4.250;2023-06-26T13:30:54;3.45;;;1.50;;
13592;SDS011;6867;50.998;4.250;2023-06-26T13:33:22;3.08;;;1.55;;
13592;SDS011;6867;50.998;4.250;2023-06-26T13:35:50;2.72;;;1.70;;
13592;SDS011;6867;50.998;4.250;2023-06-26T13:38:17;1.70;;;1.40;;
13592;SDS011;6867;50.998;4.250;2023-06-26T13:40:45;4.32;;;1.70;;
13592;SDS011;6867;50.998;4.250;2023-06-26T13:43:11;2.72;;;1.45;;
13592;SDS011;6867;50.998;4.250;2023-06-26T13:45:38;3.10;;;1.48;;
13592;SDS011;6867;50.998;4.250;2023-06-26T13:48:04;5.63;;;1.50;;
13592;SDS011;6867;50.998;4.250;2023-06-26T13:50:32;2.78;;;1.48;;
13592;SDS011;6867;50.998;4.250;2023-06-26T13:52:59;3.13;;;1.70;;
13592;SDS011;6867;50.998;4.250;2023-06-26T13:55:27;2.45;;;1.65;;
13592;SDS011;6867;50.998;4.250;2023-06-26T13:57:54;3.42;;;1.70;;
13592;SDS011;6867;50.998;4.250;2023-06-26T14:00:21;3.53;;;1.65;;
13592;SDS011;6867;50.998;4.250;2023-06-26T14:02:48;2.42;;;1.33;;
13592;SDS011;6867;50.998;4.250;2023-06-26T14:05:15;2.20;;;1.65;;
13592;SDS011;6867;50.998;4.250;2023-06-26T14:07:45;2.97;;;1.20;;
13592;SDS011;6867;50.998;4.250;2023-06-26T14:10:11;3.67;;;1.60;;
13592;SDS011;6867;50.998;4.250;2023-06-26T14:12:38;3.88;;;1.40;;
13592;SDS011;6867;50.998;4.250;2023-06-26T14:15:06;4.30;;;1.70;;
13592;SDS011;6867;50.998;4.250;2023-06-26T14:17:34;3.85;;;1.70;;
13592;SDS011;6867;50.998;4.250;2023-06-26T14:20:00;5.50;;;1.58;;
13592;SDS011;6867;50.998;4.250;2023-06-26T14:22:30;2.30;;;1.52;;
13592;SDS011;6867;50.998;4.250;2023-06-26T14:24:59;2.65;;;1.70;;
13592;SDS011;6867;50.998;4.250;2023-06-26T14:27:26;4.82;;;1.70;;
13592;SDS011;6867;50.998;4.250;2023-06-26T14:29:52;2.55;;;1.48;;
13592;SDS011;6867;50.998;4.250;2023-06-26T14:32:19;5.63;;;1.48;;
13592;SDS011;6867;50.998;4.250;2023-06-26T14:34:46;3.55;;;1.27;;
13592;SDS011;6867;50.998;4.250;2023-06-26T14:37:12;3.25;;;1.50;;
13592;SDS011;6867;50.998;4.250;2023-06-26T14:39:39;2.20;;;1.38;;
13592;SDS011;6867;50.998;4.250;2023-06-26T14:42:07;3.17;;;1.58;;
13592;SDS011;6867;50.998;4.250;2023-06-26T14:44:34;2.70;;;1.38;;
13592;SDS011;6867;50.998;4.250;2023-06-26T14:47:00;2.33;;;1.42;;
13592;SDS011;6867;50.998;4.250;2023-06-26T14:49:27;1.67;;;1.25;;
13592;SDS011;6867;50.998;4.250;2023-06-26T14:51:54;2.20;;;1.38;;
13592;SDS011;6867;50.998;4.250;2023-06-26T14:54:21;3.83;;;1.40;;
13592;SDS011;6867;50.998;4.250;2023-06-26T14:56:47;1.67;;;1.20;;
13592;SDS011;6867;50.998;4.250;2023-06-26T14:59:15;3.55;;;1.40;;
13592;SDS011;6867;50.998;4.250;2023-06-26T15:01:42;4.63;;;1.50;;
13592;SDS011;6867;50.998;4.250;2023-06-26T15:04:09;3.28;;;1.40;;